Terminal Aerodrome Forecast
Issued by NWS Sterling, VA

Current Version | Previous Version | Graphics & Text | Print | Product List | Glossary On
Versions: 1 2 3 4 5 6 7 8 9 10 11 12 13 14 15 16 17 18 19 20 21 22 23 24 25 26 27 28 29 30 31
186
FTUS41 KLWX 031123
TAFDCA
TAF
KDCA 031123Z 0312/0412 16007KT 6SM -DZ BR OVC015 WS020/17040KT
     FM031400 18009KT 5SM -SHRADZ BR OVC009 WS020/18045KT
     FM031700 19012G22KT 3SM -RA BR OVC015
     FM032100 20010G20KT 2SM -RA BR OVC015
     FM040200 VRB03KT P6SM VCSH OVC035
     FM040600 26004KT P6SM OVC060=

USA.gov is the U.S. government's official web portal to all federal, state and local government web resources and services.